Time;durP1;ratioP1;P1;durP2;ratioP2;P2;SDS_P1;SDS_P2;PMS_P1;PMS_P2;Temp;Humidity;BMP_temperature;BMP_pressure;BME280_temperature;BME280_humidity;BME280_pressure;Samples;Min_cycle;Max_cycle;Signal;HPM_P1;HPM_P2
2023/08/06 00:00:23;;;;;;;9.05;5.07;;;19.70;99.90;;;;;;4916635;29;20032;-73
2023/08/06 00:02:50;;;;;;;9.95;4.97;;;19.60;99.90;;;;;;4916111;29;20425;-77
2023/08/06 00:05:20;;;;;;;13.80;5.90;;;19.60;99.90;;;;;;4917995;29;20032;-78
2023/08/06 00:07:50;;;;;;;11.98;6.82;;;19.50;99.90;;;;;;4916575;29;20028;-78
2023/08/06 00:10:17;;;;;;;10.45;7.00;;;19.50;99.90;;;;;;4916767;29;20058;-79
2023/08/06 00:12:43;;;;;;;9.15;6.00;;;19.50;99.90;;;;;;4916690;29;20512;-76
2023/08/06 00:15:10;;;;;;;11.32;6.80;;;19.50;99.90;;;;;;4916624;29;20024;-76
2023/08/06 00:17:36;;;;;;;13.38;7.78;;;19.50;99.90;;;;;;4918529;29;20039;-74
2023/08/06 00:20:04;;;;;;;11.07;6.18;;;19.50;99.90;;;;;;4918712;29;20024;-73
2023/08/06 00:22:37;;;;;;;10.00;6.03;;;19.50;99.90;;;;;;4919480;29;20062;-78
2023/08/06 00:25:05;;;;;;;13.27;5.25;;;19.50;99.90;;;;;;4918101;29;20046;-74
2023/08/06 00:27:32;;;;;;;8.23;5.13;;;19.50;99.90;;;;;;4916355;29;20127;-74
2023/08/06 00:29:58;;;;;;;8.40;5.20;;;19.50;99.90;;;;;;4901064;29;20059;-78
2023/08/06 00:32:24;;;;;;;6.93;4.95;;;19.50;99.90;;;;;;4917337;29;20110;-76
2023/08/06 00:34:50;;;;;;;9.10;5.55;;;19.50;99.90;;;;;;4917008;29;20084;-79
2023/08/06 00:37:17;;;;;;;10.05;4.70;;;19.50;99.90;;;;;;4896527;29;20136;-81
2023/08/06 00:39:43;;;;;;;9.05;4.82;;;19.60;99.90;;;;;;4891308;29;20024;-78
2023/08/06 00:42:10;;;;;;;6.00;3.92;;;19.60;99.90;;;;;;4895819;29;20028;-76
2023/08/06 00:44:36;;;;;;;5.63;3.58;;;19.70;99.90;;;;;;4908617;29;20054;-73
2023/08/06 00:47:02;;;;;;;5.40;3.92;;;19.70;99.90;;;;;;4883726;29;20036;-78
2023/08/06 00:49:28;;;;;;;8.50;3.92;;;19.70;99.90;;;;;;4915943;29;20039;-77
2023/08/06 00:52:04;;;;;;;4.00;3.17;;;19.70;99.90;;;;;;4899932;29;20111;-79
2023/08/06 00:54:33;;;;;;;5.65;3.70;;;19.80;99.90;;;;;;4917069;29;20040;-75
2023/08/06 00:57:01;;;;;;;5.97;3.92;;;19.70;99.90;;;;;;4920333;29;20035;-78
2023/08/06 00:59:27;;;;;;;6.20;3.53;;;19.80;99.90;;;;;;4922891;29;20110;-76
2023/08/06 01:01:53;;;;;;;6.68;3.97;;;19.80;99.90;;;;;;4924368;29;20020;-79
2023/08/06 01:04:19;;;;;;;10.60;3.80;;;19.70;99.90;;;;;;4903778;29;20124;-73
2023/08/06 01:07:23;;;;;;;8.75;3.78;;;19.70;99.90;;;;;;4925160;29;20031;-76
2023/08/06 01:09:51;;;;;;;;;;;19.60;99.90;;;;;;4814799;29;20052;-78
2023/08/06 01:12:35;;;;;;;9.68;4.65;;;19.50;99.90;;;;;;4828225;29;19955;-78
2023/08/06 01:15:06;;;;;;;8.60;5.10;;;19.50;99.90;;;;;;4828879;29;20057;-73
2023/08/06 01:17:35;;;;;;;5.72;3.80;;;19.50;99.90;;;;;;4828595;29;20125;-79
2023/08/06 01:20:00;;;;;;;7.68;4.53;;;19.60;99.90;;;;;;4811952;29;20050;-79
2023/08/06 01:22:26;;;;;;;11.20;5.55;;;19.70;99.90;;;;;;4836308;29;20062;-75
2023/08/06 01:24:54;;;;;;;10.35;5.50;;;19.70;99.90;;;;;;4829351;29;20121;-74
2023/08/06 01:27:23;;;;;;;9.38;6.50;;;19.80;99.90;;;;;;4845304;29;20045;-73
2023/08/06 01:30:02;;;;;;;11.05;6.70;;;19.80;99.90;;;;;;4829951;29;20110;-80
2023/08/06 01:32:30;;;;;;;11.02;6.70;;;19.90;99.90;;;;;;4844854;29;20060;-81
2023/08/06 01:34:59;;;;;;;12.15;7.13;;;20.00;99.90;;;;;;4845159;29;20040;-80
2023/08/06 01:37:25;;;;;;;9.82;6.35;;;20.00;99.90;;;;;;4844898;29;20034;-78
2023/08/06 01:39:51;;;;;;;11.57;6.80;;;20.00;99.90;;;;;;4845500;29;20145;-74
2023/08/06 01:42:16;;;;;;;10.90;6.97;;;20.00;99.90;;;;;;4830174;29;20071;-78
2023/08/06 01:44:42;;;;;;;9.27;6.10;;;19.90;99.90;;;;;;4862386;29;20139;-74
2023/08/06 01:47:08;;;;;;;11.90;7.15;;;19.80;99.90;;;;;;4940167;29;20036;-77
2023/08/06 01:49:34;;;;;;;8.45;6.30;;;19.90;99.90;;;;;;4932481;29;20122;-74
2023/08/06 01:52:00;;;;;;;11.60;7.05;;;19.80;99.90;;;;;;4940265;29;20051;-80
2023/08/06 01:54:27;;;;;;;11.85;6.70;;;19.90;99.90;;;;;;4943057;29;20059;-74
2023/08/06 01:56:53;;;;;;;11.30;6.90;;;19.90;99.90;;;;;;4941702;29;20027;-80
2023/08/06 01:59:19;;;;;;;11.57;6.72;;;19.90;99.90;;;;;;4931021;29;20051;-78
2023/08/06 02:01:46;;;;;;;10.85;6.53;;;19.90;99.90;;;;;;4922426;28;20036;-77
2023/08/06 02:04:11;;;;;;;11.02;7.30;;;19.90;99.90;;;;;;4927577;29;20055;-76
2023/08/06 02:06:37;;;;;;;14.55;7.28;;;19.90;99.90;;;;;;4939386;29;20019;-75
2023/08/06 02:09:03;;;;;;;12.23;6.95;;;19.90;99.90;;;;;;4919286;29;20079;-77
2023/08/06 02:11:29;;;;;;;12.65;7.15;;;19.90;99.90;;;;;;4919875;29;20035;-75
2023/08/06 02:13:55;;;;;;;9.80;6.30;;;19.80;99.90;;;;;;4939187;29;20028;-78
2023/08/06 02:16:20;;;;;;;13.35;7.35;;;19.90;99.90;;;;;;4936816;29;20015;-78
2023/08/06 02:18:46;;;;;;;13.73;7.50;;;19.90;99.90;;;;;;4936711;29;20051;-77
2023/08/06 02:21:12;;;;;;;13.75;8.23;;;19.80;99.90;;;;;;4918399;29;20364;-76
2023/08/06 02:23:38;;;;;;;12.82;8.38;;;19.90;99.90;;;;;;4936001;29;20040;-77
2023/08/06 02:26:04;;;;;;;14.57;8.35;;;19.90;99.90;;;;;;4919412;29;20031;-79
2023/08/06 02:28:31;;;;;;;12.73;8.13;;;19.80;99.90;;;;;;4936580;29;20380;-74
2023/08/06 02:30:57;;;;;;;11.82;7.18;;;19.90;99.90;;;;;;4936136;29;20050;-78
2023/08/06 02:33:23;;;;;;;12.88;6.85;;;19.90;99.90;;;;;;4916038;29;20781;-74
2023/08/06 02:35:49;;;;;;;13.05;6.25;;;20.00;99.90;;;;;;4936521;29;20035;-77
2023/08/06 02:38:14;;;;;;;11.50;6.38;;;20.00;99.90;;;;;;4936002;29;20489;-78
2023/08/06 02:40:47;;;;;;;12.32;7.72;;;20.00;99.90;;;;;;4916363;29;20021;-79
2023/08/06 02:43:14;;;;;;;10.45;6.78;;;20.00;99.90;;;;;;4918154;29;20094;-77
2023/08/06 02:45:40;;;;;;;8.95;6.25;;;20.00;99.90;;;;;;4919680;29;20036;-76
2023/08/06 02:48:06;;;;;;;9.35;6.07;;;20.00;99.90;;;;;;4931123;29;20490;-79
2023/08/06 02:50:39;;;;;;;10.50;6.28;;;20.10;99.90;;;;;;4935066;29;20047;-74
2023/08/06 02:53:06;;;;;;;10.27;6.25;;;20.10;99.90;;;;;;4918904;29;20386;-73
2023/08/06 02:55:32;;;;;;;11.23;6.43;;;20.10;99.90;;;;;;4936648;29;20028;-74
2023/08/06 02:57:58;;;;;;;12.05;6.95;;;20.20;99.90;;;;;;4917968;29;20116;-74
2023/08/06 03:00:24;;;;;;;15.07;6.55;;;20.20;99.90;;;;;;4936401;29;20028;-75
2023/08/06 03:02:50;;;;;;;9.45;6.68;;;20.20;99.90;;;;;;4918105;29;20030;-78
2023/08/06 03:05:39;;;;;;;10.27;6.88;;;20.20;99.90;;;;;;4915983;29;20124;-73
2023/08/06 03:08:05;;;;;;;11.23;7.00;;;20.20;99.90;;;;;;4917874;29;20524;-73
2023/08/06 03:10:34;;;;;;;13.73;6.60;;;20.10;99.90;;;;;;4922691;29;20399;-80
2023/08/06 03:13:03;;;;;;;13.98;8.90;;;20.10;99.90;;;;;;4918465;29;20498;-80
2023/08/06 03:15:28;;;;;;;9.77;6.68;;;20.10;99.90;;;;;;4933719;29;20032;-76
2023/08/06 03:17:56;;;;;;;12.43;6.82;;;20.20;99.90;;;;;;4917231;29;20483;-75
2023/08/06 03:20:22;;;;;;;12.90;7.22;;;20.20;99.90;;;;;;4912503;29;20435;-74
2023/08/06 03:22:49;;;;;;;10.63;6.57;;;20.10;99.90;;;;;;4914785;29;20052;-74
2023/08/06 03:25:15;;;;;;;14.57;7.65;;;20.20;99.90;;;;;;4911600;29;20411;-73
2023/08/06 03:27:44;;;;;;;9.20;6.60;;;20.30;99.90;;;;;;4914413;29;20038;-79
2023/08/06 03:30:12;;;;;;;10.50;7.20;;;20.30;99.90;;;;;;4919321;29;20031;-80
2023/08/06 03:32:39;;;;;;;14.07;7.63;;;20.30;99.90;;;;;;4918854;29;20502;-79
2023/08/06 03:35:05;;;;;;;12.35;7.13;;;20.40;99.90;;;;;;4932343;29;20399;-78
2023/08/06 03:37:31;;;;;;;13.13;7.80;;;20.40;99.90;;;;;;4917995;29;20028;-79
2023/08/06 03:39:57;;;;;;;12.43;7.55;;;20.30;99.90;;;;;;4926579;29;20035;-78
2023/08/06 03:42:23;;;;;;;14.73;8.15;;;20.30;99.90;;;;;;4912503;29;20032;-77
2023/08/06 03:44:49;;;;;;;13.82;8.30;;;20.40;99.90;;;;;;4916649;29;20437;-76
2023/08/06 03:47:15;;;;;;;11.82;8.00;;;20.40;99.90;;;;;;4915692;29;20396;-74
2023/08/06 03:49:43;;;;;;;12.20;7.95;;;20.40;99.90;;;;;;4918298;29;20046;-79
2023/08/06 03:52:09;;;;;;;14.75;7.65;;;20.40;99.90;;;;;;4918448;29;20030;-73
2023/08/06 03:54:35;;;;;;;13.13;8.65;;;20.30;99.90;;;;;;4931837;29;20032;-73
2023/08/06 03:57:01;;;;;;;15.45;8.55;;;20.30;99.90;;;;;;4909454;29;20036;-79
2023/08/06 03:59:27;;;;;;;13.48;8.18;;;20.40;99.90;;;;;;4936030;29;20016;-76
2023/08/06 04:01:53;;;;;;;14.50;9.20;;;20.40;99.90;;;;;;4935655;29;20028;-73
2023/08/06 04:04:19;;;;;;;13.60;8.60;;;20.40;99.90;;;;;;4916423;29;20103;-79
2023/08/06 04:06:44;;;;;;;14.48;8.85;;;20.30;99.90;;;;;;4927009;29;20098;-75
2023/08/06 04:09:10;;;;;;;14.10;8.77;;;20.30;99.90;;;;;;4919077;29;20122;-77
2023/08/06 04:11:36;;;;;;;13.77;9.15;;;20.20;99.90;;;;;;4935544;29;20082;-73
2023/08/06 04:14:02;;;;;;;13.15;8.55;;;20.20;99.90;;;;;;4914857;29;20048;-75
2023/08/06 04:16:30;;;;;;;13.77;9.18;;;20.20;99.90;;;;;;4906176;29;20028;-77
2023/08/06 04:18:55;;;;;;;14.02;9.68;;;20.20;99.90;;;;;;4913229;29;20547;-74
2023/08/06 04:21:21;;;;;;;19.13;11.10;;;20.10;99.90;;;;;;4926268;29;20036;-76
2023/08/06 04:23:48;;;;;;;16.77;10.57;;;20.10;99.90;;;;;;4915074;29;20056;-80
2023/08/06 04:26:14;;;;;;;17.42;11.85;;;20.10;99.90;;;;;;4908852;29;20039;-75
2023/08/06 04:28:40;;;;;;;19.80;11.55;;;20.00;99.90;;;;;;4917564;29;20531;-79
2023/08/06 04:31:06;;;;;;;17.77;12.70;;;20.10;99.90;;;;;;4905228;29;20031;-75
2023/08/06 04:33:33;;;;;;;18.38;12.30;;;20.00;99.90;;;;;;4914276;29;20060;-76
2023/08/06 04:36:04;;;;;;;17.60;11.65;;;20.00;99.90;;;;;;4917935;29;20028;-73
2023/08/06 04:38:30;;;;;;;18.25;11.23;;;20.10;99.90;;;;;;4921306;29;20181;-78
2023/08/06 04:40:57;;;;;;;22.20;11.68;;;20.00;99.90;;;;;;4914874;29;20119;-77
2023/08/06 04:43:24;;;;;;;14.82;10.52;;;20.10;99.90;;;;;;4906243;29;20040;-78
2023/08/06 04:45:53;;;;;;;13.77;9.45;;;20.20;99.90;;;;;;4918627;29;20483;-80
2023/08/06 04:48:19;;;;;;;13.88;8.43;;;20.20;99.90;;;;;;4936710;29;20372;-80
2023/08/06 04:50:48;;;;;;;11.60;7.15;;;20.20;99.90;;;;;;4935314;29;20097;-77
2023/08/06 04:53:17;;;;;;;10.25;6.53;;;20.20;99.90;;;;;;4935960;29;20126;-77
2023/08/06 04:55:43;;;;;;;10.90;6.38;;;20.20;99.90;;;;;;4927071;29;20028;-77
2023/08/06 04:58:13;;;;;;;11.13;5.97;;;20.10;99.90;;;;;;4932002;29;20102;-80
2023/08/06 05:00:38;;;;;;;10.60;6.35;;;20.00;99.90;;;;;;4935463;29;20036;-80
2023/08/06 05:03:05;;;;;;;8.70;5.53;;;20.10;99.90;;;;;;4935472;29;20051;-75
2023/08/06 05:05:31;;;;;;;7.93;5.38;;;20.20;99.90;;;;;;4935995;29;20046;-82
2023/08/06 05:07:57;;;;;;;11.15;6.20;;;20.20;99.90;;;;;;4935663;29;20543;-78
2023/08/06 05:10:26;;;;;;;9.65;6.32;;;20.20;99.90;;;;;;4935548;29;20542;-80
2023/08/06 05:12:53;;;;;;;10.50;5.60;;;20.30;99.90;;;;;;4934891;29;20028;-74
2023/08/06 05:15:19;;;;;;;11.55;5.75;;;20.40;99.90;;;;;;4935836;29;20055;-80
2023/08/06 05:17:44;;;;;;;10.00;4.95;;;20.70;99.90;;;;;;4934959;29;20059;-79
2023/08/06 05:20:11;;;;;;;4.53;3.20;;;20.80;99.90;;;;;;4935086;29;20495;-80
2023/08/06 05:22:37;;;;;;;9.88;4.07;;;20.70;99.90;;;;;;4922792;29;20039;-79
2023/08/06 05:25:03;;;;;;;7.45;3.60;;;20.80;99.90;;;;;;4935648;29;20431;-78
2023/08/06 05:27:28;;;;;;;6.22;3.40;;;20.90;99.90;;;;;;4934856;29;20032;-79
2023/08/06 05:29:57;;;;;;;6.57;3.88;;;21.20;99.90;;;;;;4934458;29;20067;-80
2023/08/06 05:32:23;;;;;;;6.85;3.72;;;21.30;99.90;;;;;;4928421;29;20122;-76
2023/08/06 05:34:49;;;;;;;5.65;3.10;;;21.10;99.90;;;;;;4935547;29;20089;-78
2023/08/06 05:37:15;;;;;;;3.55;2.67;;;21.10;99.90;;;;;;4928494;29;20040;-77
2023/08/06 05:39:40;;;;;;;5.25;2.92;;;21.20;99.90;;;;;;4932961;29;20028;-74
2023/08/06 05:42:06;;;;;;;7.38;2.90;;;21.20;99.90;;;;;;4930129;29;20476;-76
2023/08/06 05:44:32;;;;;;;4.60;2.85;;;21.00;99.90;;;;;;4932102;29;20090;-77
2023/08/06 05:46:58;;;;;;;11.27;3.90;;;21.10;99.90;;;;;;4936515;29;20075;-74
2023/08/06 05:49:24;;;;;;;4.82;2.85;;;20.90;99.90;;;;;;4928566;29;20028;-78
2023/08/06 05:51:50;;;;;;;4.82;2.78;;;21.00;99.90;;;;;;4937812;29;20444;-78
2023/08/06 05:54:15;;;;;;;5.50;2.30;;;21.00;99.90;;;;;;4938669;29;20074;-77
2023/08/06 05:56:41;;;;;;;3.63;2.70;;;21.00;99.90;;;;;;4939264;29;20122;-76
2023/08/06 05:59:07;;;;;;;5.80;2.65;;;21.10;99.90;;;;;;4926684;29;20028;-78
2023/08/06 06:01:33;;;;;;;4.43;3.08;;;21.00;99.90;;;;;;4936952;29;20027;-78
2023/08/06 06:03:59;;;;;;;7.40;3.33;;;21.20;99.90;;;;;;4938343;29;20376;-78
2023/08/06 06:06:24;;;;;;;5.78;3.28;;;21.00;99.90;;;;;;4928322;29;20111;-81
2023/08/06 06:08:50;;;;;;;10.75;4.50;;;21.00;99.90;;;;;;4934885;29;20032;-78
2023/08/06 06:11:16;;;;;;;10.75;4.53;;;21.00;99.90;;;;;;4936553;29;20375;-81
2023/08/06 06:13:42;;;;;;;4.68;2.63;;;21.30;99.90;;;;;;4928001;29;20495;-77
2023/08/06 06:16:07;;;;;;;3.40;2.10;;;21.50;99.90;;;;;;4926732;29;20043;-76
2023/08/06 06:18:33;;;;;;;5.22;1.65;;;21.70;99.90;;;;;;4931670;29;20047;-81
2023/08/06 06:20:59;;;;;;;2.35;1.70;;;21.70;99.90;;;;;;4920947;29;20028;-80
2023/08/06 06:23:25;;;;;;;3.95;1.92;;;21.70;99.90;;;;;;4913217;29;20087;-79
2023/08/06 06:25:55;;;;;;;5.35;2.45;;;21.70;99.90;;;;;;4905948;29;20388;-75
2023/08/06 06:28:21;;;;;;;2.42;1.60;;;21.70;99.90;;;;;;4908499;29;20056;-78
2023/08/06 06:30:48;;;;;;;3.92;1.63;;;21.60;99.90;;;;;;4907374;29;20024;-74
2023/08/06 06:33:14;;;;;;;1.67;1.38;;;21.50;99.90;;;;;;4905423;29;20024;-75
2023/08/06 06:35:39;;;;;;;1.50;1.23;;;21.70;99.90;;;;;;4910253;29;20463;-79
2023/08/06 06:38:05;;;;;;;1.73;1.27;;;21.70;99.90;;;;;;4908720;29;20091;-74
2023/08/06 06:40:32;;;;;;;2.65;1.80;;;22.10;99.90;;;;;;4915281;29;20115;-75
2023/08/06 06:42:58;;;;;;;3.67;1.55;;;22.40;99.90;;;;;;4916823;29;20685;-74
2023/08/06 06:45:24;;;;;;;4.18;1.40;;;22.80;99.90;;;;;;4905650;29;20111;-74
2023/08/06 06:47:50;;;;;;;4.78;1.50;;;22.90;99.90;;;;;;4904081;29;20505;-81
2023/08/06 06:50:16;;;;;;;2.08;1.20;;;22.80;99.90;;;;;;4914591;29;20547;-80
2023/08/06 06:52:42;;;;;;;1.77;1.30;;;22.60;99.90;;;;;;4917481;29;20024;-77
2023/08/06 06:55:08;;;;;;;1.48;1.00;;;22.60;99.90;;;;;;4899908;29;20037;-78
2023/08/06 06:57:33;;;;;;;2.08;1.05;;;22.30;99.90;;;;;;4905861;29;20384;-80
2023/08/06 06:59:59;;;;;;;1.13;1.00;;;22.00;99.90;;;;;;4905214;29;20021;-77
2023/08/06 07:02:25;;;;;;;2.22;1.42;;;22.40;99.90;;;;;;4910811;29;20092;-79
2023/08/06 07:04:51;;;;;;;4.32;1.50;;;22.80;99.90;;;;;;4907017;29;20050;-79
2023/08/06 07:07:17;;;;;;;6.55;1.25;;;23.10;99.90;;;;;;4901542;29;20485;-82
2023/08/06 07:09:42;;;;;;;1.73;1.20;;;23.50;99.90;;;;;;4904722;29;20032;-75
2023/08/06 07:12:08;;;;;;;2.72;1.38;;;23.50;99.90;;;;;;4909446;29;20066;-79
2023/08/06 07:14:34;;;;;;;2.38;1.17;;;23.10;99.90;;;;;;4911912;29;20485;-77
2023/08/06 07:17:00;;;;;;;1.30;1.02;;;23.10;99.90;;;;;;4905936;29;20027;-81
2023/08/06 07:19:26;;;;;;;1.10;1.00;;;23.00;99.90;;;;;;4901568;29;20032;-81
2023/08/06 07:21:52;;;;;;;1.83;1.40;;;22.80;99.90;;;;;;4912809;29;20049;-79
2023/08/06 07:24:17;;;;;;;4.55;1.75;;;22.60;99.90;;;;;;4904785;29;20044;-79
2023/08/06 07:26:43;;;;;;;5.40;2.80;;;22.50;99.90;;;;;;4919888;29;20036;-79
2023/08/06 07:29:09;;;;;;;6.45;1.90;;;22.30;99.90;;;;;;4919420;29;20476;-74
2023/08/06 07:31:35;;;;;;;4.47;2.17;;;22.40;99.90;;;;;;4921451;29;20024;-82
2023/08/06 07:34:01;;;;;;;2.88;1.27;;;22.50;99.90;;;;;;4919862;29;20111;-76
2023/08/06 07:36:27;;;;;;;4.80;1.83;;;22.20;99.90;;;;;;4920083;29;20083;-74
2023/08/06 07:38:55;;;;;;;3.15;2.08;;;21.90;99.90;;;;;;4920258;29;20035;-75
2023/08/06 07:41:22;;;;;;;3.92;1.67;;;22.00;99.90;;;;;;4920219;29;20036;-80
2023/08/06 07:43:49;;;;;;;6.00;2.83;;;21.90;99.90;;;;;;4918754;29;20407;-80
2023/08/06 07:46:15;;;;;;;8.63;3.03;;;22.00;99.90;;;;;;4921970;29;20377;-80
2023/08/06 07:48:40;;;;;;;2.65;1.80;;;22.30;99.90;;;;;;4919977;29;20055;-76
2023/08/06 07:51:06;;;;;;;2.25;1.52;;;22.50;99.90;;;;;;4911400;29;20057;-80
2023/08/06 07:53:32;;;;;;;7.32;1.60;;;22.70;99.90;;;;;;4910578;29;20052;-76
2023/08/06 07:55:58;;;;;;;4.15;1.48;;;22.80;99.90;;;;;;4913003;29;20028;-77
2023/08/06 07:58:25;;;;;;;1.85;1.02;;;22.90;99.90;;;;;;4919247;29;20024;-80
2023/08/06 08:00:51;;;;;;;2.45;0.85;;;23.00;99.90;;;;;;4917194;29;20527;-75
2023/08/06 08:03:17;;;;;;;1.55;1.10;;;23.00;99.90;;;;;;4906989;29;20560;-78
2023/08/06 08:05:44;;;;;;;0.95;0.80;;;22.90;99.90;;;;;;4905224;29;20044;-77
2023/08/06 08:08:10;;;;;;;2.38;1.55;;;23.10;99.90;;;;;;4913873;29;20063;-79
2023/08/06 08:10:37;;;;;;;1.00;0.90;;;23.40;99.90;;;;;;4916659;29;20047;-79
2023/08/06 08:13:04;;;;;;;2.05;0.95;;;23.30;99.90;;;;;;4917009;29;20543;-77
2023/08/06 08:15:31;;;;;;;2.78;1.23;;;23.20;99.90;;;;;;4905138;29;20489;-77
2023/08/06 08:17:57;;;;;;;1.00;0.90;;;23.20;99.90;;;;;;4917055;29;20055;-77
2023/08/06 08:20:24;;;;;;;1.50;1.10;;;22.90;99.90;;;;;;4912131;29;20032;-77
2023/08/06 08:22:50;;;;;;;3.03;1.02;;;22.90;99.90;;;;;;4912120;29;20059;-79
2023/08/06 08:25:16;;;;;;;4.35;1.02;;;22.80;99.90;;;;;;4911363;29;20146;-75
2023/08/06 08:27:42;;;;;;;2.30;1.40;;;23.20;99.90;;;;;;4917157;29;20495;-76
2023/08/06 08:30:08;;;;;;;1.25;1.15;;;23.40;99.90;;;;;;4908648;29;20119;-78
2023/08/06 08:32:34;;;;;;;2.53;1.33;;;23.70;99.90;;;;;;4920604;29;20080;-76
2023/08/06 08:35:00;;;;;;;1.75;1.23;;;24.20;99.90;;;;;;4916411;29;20059;-78
2023/08/06 08:37:25;;;;;;;2.10;1.00;;;24.40;99.90;;;;;;4907271;29;20041;-79
2023/08/06 08:39:52;;;;;;;3.75;1.33;;;24.70;99.90;;;;;;4917368;29;20060;-80
2023/08/06 08:42:18;;;;;;;2.30;1.13;;;24.70;99.90;;;;;;4919821;29;20078;-78
2023/08/06 08:44:44;;;;;;;1.70;1.17;;;24.90;99.90;;;;;;4903704;29;20096;-76
2023/08/06 08:47:11;;;;;;;2.55;1.33;;;25.00;99.90;;;;;;4908872;29;20540;-78
2023/08/06 08:49:37;;;;;;;2.63;1.10;;;24.90;99.90;;;;;;4911402;29;20032;-75
2023/08/06 08:52:10;;;;;;;2.83;1.20;;;24.80;99.90;;;;;;4915694;29;20020;-80
2023/08/06 08:54:37;;;;;;;1.88;1.08;;;24.40;99.90;;;;;;4915635;29;20032;-74
2023/08/06 08:57:03;;;;;;;4.07;1.48;;;24.50;99.90;;;;;;4911741;29;20029;-78
2023/08/06 08:59:29;;;;;;;0.85;0.80;;;24.60;99.90;;;;;;4913961;29;20028;-80
2023/08/06 09:01:56;;;;;;;1.05;0.82;;;24.40;99.90;;;;;;4918070;29;20380;-82
2023/08/06 09:04:23;;;;;;;1.17;0.88;;;24.80;99.90;;;;;;4918469;29;20051;-77
2023/08/06 09:06:54;;;;;;;4.10;1.08;;;25.10;99.90;;;;;;4917080;29;20036;-74
2023/08/06 09:09:26;;;;;;;1.20;0.70;;;24.90;99.90;;;;;;4917193;29;20056;-77
2023/08/06 09:11:52;;;;;;;;;;;25.10;99.90;;;;;;4915125;29;20107;-82
2023/08/06 09:14:18;;;;;;;2.83;1.02;;;25.30;99.90;;;;;;4908104;29;19981;-80
2023/08/06 09:16:44;;;;;;;0.73;0.73;;;25.00;99.90;;;;;;4911510;29;20523;-73
2023/08/06 09:19:17;;;;;;;0.85;0.52;;;25.20;99.90;;;;;;4914816;29;20021;-74
2023/08/06 09:21:43;;;;;;;0.60;0.57;;;25.60;99.90;;;;;;4914822;29;20099;-75
2023/08/06 09:24:10;;;;;;;1.20;0.70;;;25.20;99.90;;;;;;4937912;29;20040;-74
2023/08/06 09:26:44;;;;;;;0.88;0.60;;;25.80;99.90;;;;;;4920919;29;20087;-74
2023/08/06 09:29:14;;;;;;;0.60;0.60;;;25.80;99.90;;;;;;4933851;29;20046;-74
2023/08/06 09:31:45;;;;;;;1.23;0.55;;;25.70;99.90;;;;;;4946956;29;20035;-74
2023/08/06 09:34:17;;;;;;;0.70;0.55;;;25.70;99.20;;;;;;4937304;29;20391;-82
2023/08/06 09:36:46;;;;;;;0.60;0.52;;;25.50;99.80;;;;;;4939156;29;20106;-75
2023/08/06 09:39:16;;;;;;;0.50;0.50;;;25.50;99.40;;;;;;4941125;29;20039;-75
2023/08/06 09:41:49;;;;;;;0.65;0.50;;;25.70;99.90;;;;;;4937332;29;20036;-75
2023/08/06 09:44:19;;;;;;;0.40;0.40;;;25.60;99.40;;;;;;4937793;29;20047;-74
2023/08/06 09:46:57;;;;;;;0.88;0.60;;;25.60;99.30;;;;;;4937408;29;20059;-73
2023/08/06 09:49:32;;;;;;;0.82;0.45;;;26.00;99.90;;;;;;4939952;29;20035;-72
2023/08/06 09:51:59;;;;;;;0.93;0.35;;;26.10;96.70;;;;;;4938945;29;20024;-80
2023/08/06 09:54:26;;;;;;;0.52;0.52;;;25.80;98.20;;;;;;4943346;29;20028;-80
2023/08/06 09:56:56;;;;;;;0.98;0.52;;;26.10;98.10;;;;;;4939636;29;20079;-73
2023/08/06 09:59:25;;;;;;;4.78;0.70;;;25.70;99.50;;;;;;4932102;29;20389;-73
2023/08/06 10:01:51;;;;;;;1.02;0.60;;;26.00;97.40;;;;;;4937711;29;20510;-81
2023/08/06 10:04:17;;;;;;;0.52;0.52;;;26.20;98.30;;;;;;4938107;29;20428;-72
2023/08/06 10:06:47;;;;;;;1.25;0.63;;;26.20;97.80;;;;;;4940352;29;20079;-82
2023/08/06 10:09:14;;;;;;;2.42;0.80;;;25.90;97.90;;;;;;4937707;29;20491;-73
2023/08/06 10:11:42;;;;;;;0.82;0.47;;;25.90;97.90;;;;;;4937757;29;20040;-74
2023/08/06 10:14:12;;;;;;;0.52;0.50;;;25.90;97.60;;;;;;4937427;29;20036;-81
2023/08/06 10:16:40;;;;;;;2.47;0.43;;;26.10;97.20;;;;;;4938552;29;20493;-82
2023/08/06 10:19:10;;;;;;;2.45;0.60;;;26.00;96.40;;;;;;4939258;29;20039;-73
2023/08/06 10:21:38;;;;;;;0.70;0.47;;;25.60;97.10;;;;;;4936290;29;20138;-72
2023/08/06 10:24:09;;;;;;;0.40;0.40;;;25.70;95.90;;;;;;4919452;29;20040;-73
2023/08/06 10:26:35;;;;;;;0.50;0.43;;;25.40;96.90;;;;;;4920178;29;20123;-81
2023/08/06 10:29:01;;;;;;;0.65;0.40;;;25.20;98.60;;;;;;4917208;29;20124;-79
2023/08/06 10:32:00;;;;;;;1.38;0.60;;;25.60;97.80;;;;;;4918186;29;20053;-73
2023/08/06 10:34:55;;;;;;;1.85;0.60;;;26.10;99.70;;;;;;4822809;29;20432;-72
2023/08/06 10:37:22;;;;;;;2.55;0.80;;;26.50;98.10;;;;;;4823863;29;20043;-72
2023/08/06 10:39:53;;;;;;;0.75;0.60;;;26.60;96.60;;;;;;4826812;29;20063;-74
2023/08/06 10:42:27;;;;;;;0.73;0.45;;;26.70;96.20;;;;;;4823881;29;20039;-75
2023/08/06 10:45:15;;;;;;;0.50;0.30;;;26.70;95.70;;;;;;4822404;29;20562;-81
2023/08/06 10:47:41;;;;;;;0.63;0.50;;;26.40;96.10;;;;;;4822982;29;20035;-82
2023/08/06 10:50:11;;;;;;;0.40;0.40;;;26.70;94.90;;;;;;4822706;29;20095;-82
2023/08/06 10:52:36;;;;;;;2.25;0.47;;;26.90;96.50;;;;;;4822631;29;20034;-73
2023/08/06 10:55:03;;;;;;;1.48;0.50;;;27.20;96.40;;;;;;4822474;29;20118;-74
2023/08/06 10:57:28;;;;;;;5.68;0.70;;;27.40;95.60;;;;;;4822609;29;20414;-77
2023/08/06 10:59:54;;;;;;;0.93;0.60;;;27.40;94.30;;;;;;4822622;29;20105;-73
2023/08/06 11:02:20;;;;;;;2.10;0.50;;;27.40;95.30;;;;;;4823828;29;20449;-78
2023/08/06 11:04:46;;;;;;;0.30;0.30;;;27.30;94.10;;;;;;4824239;29;20090;-82
2023/08/06 11:07:13;;;;;;;2.13;0.60;;;27.00;94.60;;;;;;4822518;29;20133;-82
2023/08/06 11:09:39;;;;;;;1.20;0.55;;;27.10;94.80;;;;;;4826896;29;20479;-74
2023/08/06 11:12:11;;;;;;;1.38;0.55;;;27.00;92.20;;;;;;4909595;29;20060;-77
2023/08/06 11:14:38;;;;;;;0.93;0.60;;;26.30;92.60;;;;;;4917479;29;20035;-83
2023/08/06 11:17:05;;;;;;;0.90;0.60;;;26.70;93.30;;;;;;4917314;29;20392;-78
2023/08/06 11:19:31;;;;;;;0.47;0.40;;;26.90;93.60;;;;;;4918477;29;20023;-74
2023/08/06 11:21:58;;;;;;;0.55;0.47;;;27.10;94.00;;;;;;4917334;29;20404;-82
2023/08/06 11:24:24;;;;;;;0.63;0.40;;;27.20;94.60;;;;;;4916913;29;20036;-73
2023/08/06 11:26:50;;;;;;;0.77;0.40;;;27.40;92.20;;;;;;4918167;29;20039;-76
2023/08/06 11:29:16;;;;;;;2.17;0.30;;;27.30;92.40;;;;;;4920958;29;20111;-82
2023/08/06 11:31:42;;;;;;;0.82;0.60;;;27.10;90.70;;;;;;4920758;29;20111;-72
2023/08/06 11:34:09;;;;;;;0.88;0.60;;;26.90;91.60;;;;;;4921049;29;20031;-73
2023/08/06 11:36:40;;;;;;;1.60;0.65;;;26.80;91.40;;;;;;4923573;29;20024;-72
2023/08/06 11:39:06;;;;;;;0.82;0.57;;;26.80;90.80;;;;;;4914030;29;20035;-78
2023/08/06 11:41:32;;;;;;;0.45;0.40;;;27.00;90.90;;;;;;4915446;29;20028;-73
2023/08/06 11:44:02;;;;;;;0.47;0.30;;;27.20;91.00;;;;;;4903385;29;20096;-73
2023/08/06 11:46:28;;;;;;;1.13;0.73;;;27.00;88.90;;;;;;4905436;29;20035;-81
2023/08/06 11:48:58;;;;;;;0.70;0.50;;;27.00;90.30;;;;;;4917564;29;20033;-81
2023/08/06 11:51:28;;;;;;;0.82;0.73;;;26.60;90.10;;;;;;4916399;29;20503;-74
2023/08/06 11:53:57;;;;;;;2.25;1.08;;;26.40;89.60;;;;;;4916524;29;20034;-80
2023/08/06 11:56:25;;;;;;;1.00;0.80;;;26.10;90.30;;;;;;4916921;29;20043;-78
2023/08/06 11:58:51;;;;;;;3.88;0.60;;;25.90;90.80;;;;;;4916416;29;20064;-83
2023/08/06 12:01:18;;;;;;;1.48;0.60;;;25.60;92.30;;;;;;4916856;29;20084;-81
2023/08/06 12:03:44;;;;;;;3.20;0.70;;;25.40;92.60;;;;;;4916808;29;20484;-73
2023/08/06 12:06:09;;;;;;;0.75;0.70;;;25.20;93.40;;;;;;4916480;29;20119;-74
2023/08/06 12:08:35;;;;;;;1.95;0.80;;;25.10;93.60;;;;;;4915717;29;20035;-78
2023/08/06 12:11:01;;;;;;;0.93;0.85;;;25.20;94.10;;;;;;4915780;29;20036;-82
2023/08/06 12:13:27;;;;;;;1.95;0.60;;;25.20;93.40;;;;;;4915967;29;20034;-74
2023/08/06 12:15:54;;;;;;;2.53;0.70;;;24.90;93.10;;;;;;4915945;29;20115;-83
2023/08/06 12:18:20;;;;;;;0.60;0.60;;;24.90;92.80;;;;;;4915012;29;20898;-73
2023/08/06 12:20:46;;;;;;;2.50;0.88;;;24.60;92.60;;;;;;4915951;29;20539;-78
2023/08/06 12:23:15;;;;;;;2.17;1.00;;;24.80;92.80;;;;;;4912309;29;20050;-78
2023/08/06 12:25:41;;;;;;;1.73;0.98;;;24.70;93.10;;;;;;4897074;29;20036;-75
2023/08/06 12:28:09;;;;;;;1.60;0.50;;;24.70;93.40;;;;;;4916178;29;20060;-75
2023/08/06 12:30:35;;;;;;;4.85;1.00;;;24.60;94.60;;;;;;4915846;29;20450;-74
2023/08/06 12:33:00;;;;;;;0.98;0.60;;;24.50;97.40;;;;;;4916050;29;20472;-74
2023/08/06 12:35:26;;;;;;;3.28;1.10;;;24.30;99.90;;;;;;4915687;29;20024;-80
2023/08/06 12:37:54;;;;;;;2.95;0.50;;;24.20;99.90;;;;;;4915705;29;20036;-75
2023/08/06 12:40:20;;;;;;;3.58;0.93;;;24.10;99.90;;;;;;4915766;29;20072;-79
2023/08/06 12:42:46;;;;;;;2.50;0.90;;;24.10;99.90;;;;;;4915791;29;20035;-81